createdAt,value
2023-05-19T00:01:03.434Z,987.21
2023-05-19T00:02:03.384Z,987.30
2023-05-19T00:03:03.264Z,987.10
2023-05-19T00:04:03.484Z,987.27
2023-05-19T00:05:02.985Z,987.10
2023-05-19T00:06:03.477Z,987.13
2023-05-19T00:07:03.482Z,987.10
2023-05-19T00:09:03.725Z,987.13
2023-05-19T00:10:03.984Z,987.13
2023-05-19T00:12:03.581Z,987.13
2023-05-19T00:14:03.782Z,987.13
2023-05-19T00:15:03.601Z,987.10
2023-05-19T00:16:03.649Z,987.27
2023-05-19T00:17:03.804Z,987.19
2023-05-19T00:18:03.753Z,987.07
2023-05-19T00:19:03.834Z,987.10
2023-05-19T00:20:03.223Z,987.16
2023-05-19T00:21:03.824Z,987.02
2023-05-19T00:22:03.452Z,987.22
2023-05-19T00:23:02.948Z,987.10
2023-05-19T00:24:02.965Z,986.96
2023-05-19T00:25:03.444Z,987.16
2023-05-19T00:26:03.381Z,986.99
2023-05-19T00:27:02.997Z,987.05
2023-05-19T00:28:03.599Z,986.99
2023-05-19T00:29:03.538Z,986.93
2023-05-19T00:30:03.094Z,987.11
2023-05-19T00:31:02.993Z,986.91
2023-05-19T00:32:03.594Z,987.08
2023-05-19T00:33:03.277Z,986.94
2023-05-19T00:34:03.790Z,986.85
2023-05-19T00:36:03.119Z,986.99
2023-05-19T00:37:03.666Z,986.91
2023-05-19T00:39:03.128Z,986.94
2023-05-19T00:40:03.742Z,986.99
2023-05-19T00:42:02.984Z,986.94
2023-05-19T00:43:03.532Z,986.85
2023-05-19T00:44:03.558Z,986.77
2023-05-19T00:45:03.145Z,986.82
2023-05-19T00:46:03.231Z,986.94
2023-05-19T00:47:04.052Z,986.85
2023-05-19T00:49:03.452Z,986.85
2023-05-19T00:50:03.051Z,986.79
2023-05-19T00:51:03.630Z,986.77
2023-05-19T00:52:03.735Z,986.74
2023-05-19T00:54:03.869Z,986.88
2023-05-19T00:56:03.648Z,986.74
2023-05-19T00:57:03.581Z,986.77
2023-05-19T00:58:03.514Z,986.63
2023-05-19T00:59:03.060Z,986.77
2023-05-19T01:00:03.527Z,986.74
2023-05-19T01:01:04.046Z,986.77
2023-05-19T01:02:03.452Z,986.88
2023-05-19T01:04:03.829Z,986.77
2023-05-19T01:06:03.032Z,986.77
2023-05-19T01:07:03.691Z,986.69
2023-05-19T01:08:03.559Z,986.74
2023-05-19T01:09:03.870Z,986.77
2023-05-19T01:11:03.525Z,986.63
2023-05-19T01:12:03.560Z,986.57
2023-05-19T01:13:03.133Z,986.60
2023-05-19T01:14:03.622Z,986.69
2023-05-19T01:15:03.770Z,986.72
2023-05-19T01:16:03.374Z,986.63
2023-05-19T01:17:03.643Z,986.72
2023-05-19T01:18:03.314Z,986.75
2023-05-19T01:19:03.058Z,986.66
2023-05-19T01:20:03.558Z,986.69
2023-05-19T01:21:03.543Z,986.75
2023-05-19T01:22:03.642Z,986.72
2023-05-19T01:23:03.380Z,986.69
2023-05-19T01:24:03.853Z,986.80
2023-05-19T01:26:03.378Z,986.69
2023-05-19T01:27:03.449Z,986.75
2023-05-19T01:28:03.434Z,986.64
2023-05-19T01:29:03.904Z,986.61
2023-05-19T01:31:03.486Z,986.67
2023-05-19T01:32:03.710Z,986.72
2023-05-19T01:33:03.928Z,986.75
2023-05-19T01:34:03.609Z,986.53
2023-05-19T01:36:03.735Z,986.64
2023-05-19T01:37:03.690Z,986.75
2023-05-19T01:38:03.630Z,986.81
2023-05-19T01:39:03.315Z,986.61
2023-05-19T01:40:03.111Z,986.70
2023-05-19T01:41:03.780Z,986.70
2023-05-19T01:42:03.582Z,986.61
2023-05-19T01:43:03.093Z,986.75
2023-05-19T01:44:03.144Z,986.61
2023-05-19T01:45:03.740Z,986.67
2023-05-19T01:47:03.047Z,986.67
2023-05-19T01:48:03.645Z,986.59
2023-05-19T01:50:03.183Z,986.70
2023-05-19T01:51:03.672Z,986.62
2023-05-19T01:53:03.872Z,986.54
2023-05-19T01:55:03.853Z,986.64
2023-05-19T01:57:03.493Z,986.62
2023-05-19T01:58:03.441Z,986.56
2023-05-19T01:59:02.925Z,986.70
2023-05-19T02:00:03.153Z,986.67
2023-05-19T02:01:03.826Z,986.59
2023-05-19T02:02:03.708Z,986.65
2023-05-19T02:03:03.886Z,986.56
2023-05-19T02:04:03.566Z,986.65
2023-05-19T02:05:03.090Z,986.65
2023-05-19T02:06:03.624Z,986.52
2023-05-19T02:07:03.365Z,986.65
2023-05-19T02:08:03.354Z,986.59
2023-05-19T02:09:02.901Z,986.56
2023-05-19T02:10:03.105Z,986.59
2023-05-19T02:11:02.961Z,986.54
2023-05-19T02:12:03.510Z,986.62
2023-05-19T02:14:03.260Z,986.62
2023-05-19T02:15:03.802Z,986.54
2023-05-19T02:16:03.528Z,986.49
2023-05-19T02:17:03.654Z,986.59
2023-05-19T02:18:03.440Z,986.59
2023-05-19T02:19:03.348Z,986.56
2023-05-19T02:21:03.912Z,986.65
2023-05-19T02:23:03.042Z,986.49
2023-05-19T02:24:03.113Z,986.37
2023-05-19T02:25:03.649Z,986.40
2023-05-19T02:27:03.119Z,986.46
2023-05-19T02:28:03.874Z,986.52
2023-05-19T02:29:03.781Z,986.56
2023-05-19T02:30:03.365Z,986.52
2023-05-19T02:32:03.550Z,986.49
2023-05-19T02:33:03.720Z,986.43
2023-05-19T02:35:02.912Z,986.49
2023-05-19T02:36:03.884Z,986.38
2023-05-19T02:37:03.658Z,986.43
2023-05-19T02:38:03.650Z,986.52
2023-05-19T02:39:03.548Z,986.35
2023-05-19T02:40:03.187Z,986.46
2023-05-19T02:41:03.803Z,986.32
2023-05-19T02:43:03.006Z,986.41
2023-05-19T02:44:03.565Z,986.35
2023-05-19T02:46:03.118Z,986.38
2023-05-19T02:47:03.788Z,986.24
2023-05-19T02:48:03.532Z,986.32
2023-05-19T02:49:03.522Z,986.27
2023-05-19T02:50:03.320Z,986.21
2023-05-19T02:51:03.365Z,986.41
2023-05-19T02:52:02.924Z,986.27
2023-05-19T02:53:03.575Z,986.27
2023-05-19T02:55:03.167Z,986.30
2023-05-19T02:56:03.708Z,986.47
2023-05-19T02:58:03.193Z,986.42
2023-05-19T02:59:03.749Z,986.42
2023-05-19T03:00:03.480Z,986.25
2023-05-19T03:01:02.973Z,986.28
2023-05-19T03:02:03.785Z,986.19
2023-05-19T03:03:03.706Z,986.28
2023-05-19T03:04:03.935Z,986.22
2023-05-19T03:05:03.217Z,986.25
2023-05-19T03:06:03.838Z,986.25
2023-05-19T03:08:03.971Z,986.19
2023-05-19T03:10:03.714Z,986.34
2023-05-19T03:11:03.305Z,986.28
2023-05-19T03:12:03.917Z,986.28
2023-05-19T03:14:03.064Z,986.39
2023-05-19T03:15:03.813Z,986.34
2023-05-19T03:16:03.671Z,986.34
2023-05-19T03:17:03.865Z,986.31
2023-05-19T03:18:03.492Z,986.34
2023-05-19T03:19:03.141Z,986.20
2023-05-19T03:20:03.293Z,986.28
2023-05-19T03:21:03.027Z,986.34
2023-05-19T03:22:03.240Z,986.28
2023-05-19T03:23:03.944Z,986.31
2023-05-19T03:25:03.507Z,986.11
2023-05-19T03:27:03.107Z,986.31
2023-05-19T03:28:03.232Z,986.20
2023-05-19T03:29:03.129Z,986.20
2023-05-19T03:30:06.799Z,986.31
2023-05-19T03:31:03.944Z,986.26
2023-05-19T03:32:03.988Z,986.28
2023-05-19T03:34:03.751Z,986.20
2023-05-19T03:35:04.000Z,986.31
2023-05-19T03:37:03.698Z,986.51
2023-05-19T03:38:03.681Z,986.31
2023-05-19T03:40:03.028Z,986.40
2023-05-19T03:41:03.766Z,986.32
2023-05-19T03:43:03.450Z,986.34
2023-05-19T03:44:03.388Z,986.37
2023-05-19T03:45:03.906Z,986.37
2023-05-19T03:46:03.627Z,986.37
2023-05-19T03:47:03.576Z,986.34
2023-05-19T03:48:03.268Z,986.32
2023-05-19T03:49:03.418Z,986.29
2023-05-19T03:50:02.978Z,986.35
2023-05-19T03:51:03.690Z,986.32
2023-05-19T03:52:03.772Z,986.23
2023-05-19T03:53:03.612Z,986.35
2023-05-19T03:54:03.451Z,986.32
2023-05-19T03:55:03.080Z,986.38
2023-05-19T03:56:03.760Z,986.43
2023-05-19T03:58:03.097Z,986.38
2023-05-19T03:59:03.671Z,986.32
2023-05-19T04:00:03.882Z,986.38
2023-05-19T04:02:03.395Z,986.52
2023-05-19T04:03:03.313Z,986.46
2023-05-19T04:04:03.940Z,986.29
2023-05-19T04:05:03.858Z,986.40
2023-05-19T04:06:03.532Z,986.43
2023-05-19T04:07:03.846Z,986.40
2023-05-19T04:09:03.499Z,986.43
2023-05-19T04:10:03.135Z,986.43
2023-05-19T04:11:03.855Z,986.20
2023-05-19T04:13:03.509Z,986.29
2023-05-19T04:14:03.556Z,986.43
2023-05-19T04:15:03.059Z,986.29
2023-05-19T04:16:03.936Z,986.31
2023-05-19T04:18:03.662Z,986.40
2023-05-19T04:19:03.989Z,986.48
2023-05-19T04:20:03.606Z,986.40
2023-05-19T04:22:03.670Z,986.37
2023-05-19T04:24:03.855Z,986.34
2023-05-19T04:25:03.840Z,986.22
2023-05-19T04:27:03.278Z,986.42
2023-05-19T04:28:03.215Z,986.31
2023-05-19T04:29:03.368Z,986.39
2023-05-19T04:30:02.988Z,986.36
2023-05-19T04:31:03.684Z,986.39
2023-05-19T04:32:03.527Z,986.36
2023-05-19T04:33:03.349Z,986.39
2023-05-19T04:34:03.299Z,986.33
2023-05-19T04:35:03.271Z,986.39
2023-05-19T04:36:03.298Z,986.39
2023-05-19T04:37:03.310Z,986.30
2023-05-19T04:38:03.387Z,986.36
2023-05-19T04:39:03.274Z,986.44
2023-05-19T04:40:03.908Z,986.36
2023-05-19T04:42:02.991Z,986.55
2023-05-19T04:43:03.539Z,986.35
2023-05-19T04:44:03.494Z,986.41
2023-05-19T04:45:03.678Z,986.44
2023-05-19T04:47:03.863Z,986.44
2023-05-19T04:48:03.732Z,986.46
2023-05-19T04:49:03.793Z,986.49
2023-05-19T04:50:03.587Z,986.43
2023-05-19T04:51:03.090Z,986.38
2023-05-19T04:52:03.881Z,986.43
2023-05-19T04:54:03.474Z,986.54
2023-05-19T04:55:03.413Z,986.46
2023-05-19T04:56:03.465Z,986.43
2023-05-19T04:57:03.498Z,986.49
2023-05-19T04:58:03.413Z,986.37
2023-05-19T04:59:03.381Z,986.48
2023-05-19T05:00:03.033Z,986.54
2023-05-19T05:01:03.062Z,986.51
2023-05-19T05:02:03.293Z,986.51
2023-05-19T05:03:03.396Z,986.48
2023-05-19T05:04:03.815Z,986.56
2023-05-19T05:05:03.841Z,986.48
2023-05-19T05:06:03.652Z,986.56
2023-05-19T05:08:03.121Z,986.61
2023-05-19T05:09:03.036Z,986.53
2023-05-19T05:10:03.408Z,986.50
2023-05-19T05:11:03.314Z,986.50
2023-05-19T05:12:02.982Z,986.63
2023-05-19T05:13:03.634Z,986.53
2023-05-19T05:15:02.952Z,986.60
2023-05-19T05:16:03.641Z,986.50
2023-05-19T05:18:03.884Z,986.52
2023-05-19T05:19:03.560Z,986.55
2023-05-19T05:20:03.356Z,986.55
2023-05-19T05:22:03.708Z,986.60
2023-05-19T05:24:03.831Z,986.41
2023-05-19T05:25:03.586Z,986.52
2023-05-19T05:26:03.797Z,986.62
2023-05-19T05:27:03.628Z,986.52
2023-05-19T05:28:03.123Z,986.59
2023-05-19T05:29:03.245Z,986.48
2023-05-19T05:30:03.971Z,986.51
2023-05-19T05:32:03.168Z,986.59
2023-05-19T05:33:03.943Z,986.58
2023-05-19T05:34:03.510Z,986.61
2023-05-19T05:35:03.157Z,986.53
2023-05-19T05:36:03.253Z,986.61
2023-05-19T05:37:03.378Z,986.61
2023-05-19T05:38:03.816Z,986.53
2023-05-19T05:39:03.899Z,986.72
2023-05-19T05:40:03.448Z,986.60
2023-05-19T05:41:03.493Z,986.57
2023-05-19T05:42:03.259Z,986.52
2023-05-19T05:43:04.046Z,986.63
2023-05-19T05:44:03.884Z,986.62
2023-05-19T05:46:03.114Z,986.56
2023-05-19T05:47:03.172Z,986.49
2023-05-19T05:48:03.754Z,986.62
2023-05-19T05:49:03.776Z,986.59
2023-05-19T05:50:03.564Z,986.59
2023-05-19T05:51:03.118Z,986.70
2023-05-19T05:52:07.009Z,986.64
2023-05-19T05:53:03.612Z,986.81
2023-05-19T05:54:03.264Z,986.61
2023-05-19T05:55:03.794Z,986.56
2023-05-19T05:56:03.896Z,986.63
2023-05-19T05:57:03.755Z,986.75
2023-05-19T05:58:03.773Z,986.75
2023-05-19T05:59:03.488Z,986.72
2023-05-19T06:00:03.279Z,986.74
2023-05-19T06:02:03.139Z,986.74
2023-05-19T06:03:03.979Z,986.71
2023-05-19T06:04:03.580Z,986.68
2023-05-19T06:05:03.218Z,986.76
2023-05-19T06:06:04.055Z,986.61
2023-05-19T06:07:03.889Z,986.78
2023-05-19T06:08:03.471Z,986.75
2023-05-19T06:09:03.196Z,986.78
2023-05-19T06:10:03.863Z,986.77
2023-05-19T06:12:03.418Z,986.85
2023-05-19T06:13:03.126Z,986.77
2023-05-19T06:14:03.969Z,986.79
2023-05-19T06:15:03.596Z,986.73
2023-05-19T06:16:03.354Z,986.81
2023-05-19T06:17:03.443Z,986.78
2023-05-19T06:18:03.239Z,986.86
2023-05-19T06:19:03.179Z,986.77
2023-05-19T06:20:03.627Z,986.82
2023-05-19T06:22:03.261Z,986.81
2023-05-19T06:23:03.188Z,986.81
2023-05-19T06:24:03.785Z,986.87
2023-05-19T06:25:03.930Z,986.98
2023-05-19T06:26:03.522Z,986.91
2023-05-19T06:27:03.551Z,986.94
2023-05-19T06:28:03.095Z,987.03
2023-05-19T06:29:03.056Z,986.94
2023-05-19T06:30:03.221Z,987.11
2023-05-19T06:31:03.909Z,987.22
2023-05-19T06:32:03.492Z,987.19
2023-05-19T06:33:03.096Z,987.24
2023-05-19T06:34:03.740Z,987.27
2023-05-19T06:36:03.676Z,987.35
2023-05-19T06:37:03.276Z,987.38
2023-05-19T06:39:03.299Z,987.46
2023-05-19T06:40:03.527Z,987.57
2023-05-19T06:41:03.248Z,987.43
2023-05-19T06:42:03.927Z,987.43
2023-05-19T06:44:03.512Z,987.57
2023-05-19T06:45:03.030Z,987.65
2023-05-19T06:46:03.171Z,987.62
2023-05-19T06:47:03.159Z,987.56
2023-05-19T06:48:03.904Z,987.65
2023-05-19T06:49:03.733Z,987.76
2023-05-19T06:50:03.348Z,987.62
2023-05-19T06:52:03.102Z,987.76
2023-05-19T06:53:03.734Z,987.81
2023-05-19T06:55:03.792Z,987.72
2023-05-19T06:57:03.298Z,987.78
2023-05-19T06:58:03.923Z,987.81
2023-05-19T07:00:03.635Z,988.00
2023-05-19T07:01:03.358Z,987.86
2023-05-19T07:02:03.694Z,987.86
2023-05-19T07:03:03.336Z,987.80
2023-05-19T07:04:03.728Z,987.96
2023-05-19T07:05:03.051Z,987.88
2023-05-19T07:06:05.082Z,987.96
2023-05-19T07:07:03.293Z,987.93
2023-05-19T07:08:03.037Z,987.88
2023-05-19T07:09:03.592Z,987.93
2023-05-19T07:10:03.161Z,987.88
2023-05-19T07:11:03.739Z,988.08
2023-05-19T07:12:03.865Z,988.13
2023-05-19T07:13:03.511Z,988.13
2023-05-19T07:14:02.997Z,988.22
2023-05-19T07:15:03.096Z,988.14
2023-05-19T07:16:03.852Z,988.17
2023-05-19T07:18:03.770Z,988.26
2023-05-19T07:20:03.637Z,988.20
2023-05-19T07:21:03.643Z,988.28
2023-05-19T07:22:03.882Z,988.37
2023-05-19T07:23:03.860Z,988.28
2023-05-19T07:24:03.537Z,988.37
2023-05-19T07:25:02.999Z,988.24
2023-05-19T07:26:03.534Z,988.28
2023-05-19T07:27:03.243Z,988.26
2023-05-19T07:28:03.843Z,988.31
2023-05-19T07:29:03.781Z,988.34
2023-05-19T07:30:03.598Z,988.34
2023-05-19T07:31:03.181Z,988.29
2023-05-19T07:32:04.099Z,988.24
2023-05-19T07:33:03.995Z,988.32
2023-05-19T07:34:03.425Z,988.32
2023-05-19T07:35:03.048Z,988.18
2023-05-19T07:36:03.776Z,988.32
2023-05-19T07:37:03.535Z,988.21
2023-05-19T07:38:03.071Z,988.41
2023-05-19T07:39:03.398Z,988.35
2023-05-19T07:40:02.996Z,988.19
2023-05-19T07:41:03.620Z,988.26
2023-05-19T07:43:03.958Z,988.29
2023-05-19T07:45:03.457Z,988.26
2023-05-19T07:46:03.139Z,988.29
2023-05-19T07:47:03.893Z,988.19
2023-05-19T07:49:03.185Z,988.13
2023-05-19T07:50:03.860Z,988.10
2023-05-19T07:51:03.656Z,988.13
2023-05-19T07:52:03.377Z,988.13
2023-05-19T07:53:02.986Z,988.32
2023-05-19T07:54:03.273Z,988.32
2023-05-19T07:55:03.350Z,988.26
2023-05-19T07:56:03.805Z,988.16
2023-05-19T07:58:03.627Z,988.24
2023-05-19T07:59:03.569Z,988.29
2023-05-19T08:00:03.610Z,988.21
2023-05-19T08:01:03.721Z,988.13
2023-05-19T08:02:03.350Z,988.13
2023-05-19T08:03:03.741Z,988.24
2023-05-19T08:05:03.227Z,988.18
2023-05-19T08:06:03.405Z,988.15
2023-05-19T08:07:03.896Z,988.15
2023-05-19T08:08:03.640Z,988.32
2023-05-19T08:09:03.588Z,988.24
2023-05-19T08:10:03.108Z,988.16
2023-05-19T08:11:03.867Z,988.21
2023-05-19T08:13:03.653Z,988.07
2023-05-19T08:15:03.719Z,988.22
2023-05-19T08:16:03.487Z,988.16
2023-05-19T08:17:03.165Z,988.26
2023-05-19T08:18:03.416Z,988.22
2023-05-19T08:19:03.722Z,988.16
2023-05-19T08:20:03.260Z,988.32
2023-05-19T08:21:03.016Z,988.26
2023-05-19T08:22:03.083Z,988.26
2023-05-19T08:23:03.758Z,988.29
2023-05-19T08:25:02.981Z,988.29
2023-05-19T08:26:03.576Z,988.35
2023-05-19T08:28:03.162Z,988.18
2023-05-19T08:29:03.777Z,988.21
2023-05-19T08:30:03.643Z,988.21
2023-05-19T08:31:03.557Z,988.12
2023-05-19T08:32:03.233Z,988.12
2023-05-19T08:33:03.208Z,988.09
2023-05-19T08:34:03.734Z,988.21
2023-05-19T08:36:03.453Z,988.23
2023-05-19T08:37:03.065Z,988.12
2023-05-19T08:38:03.170Z,988.18
2023-05-19T08:39:03.622Z,988.03
2023-05-19T08:40:03.327Z,988.12
2023-05-19T08:41:03.882Z,988.17
2023-05-19T08:43:03.211Z,988.11
2023-05-19T08:44:03.781Z,988.20
2023-05-19T08:45:04.074Z,988.03
2023-05-19T08:46:03.839Z,988.12
2023-05-19T08:47:03.944Z,988.00
2023-05-19T08:48:03.551Z,988.09
2023-05-19T08:49:03.565Z,988.15
2023-05-19T08:50:03.710Z,988.09
2023-05-19T08:52:03.742Z,988.06
2023-05-19T08:54:03.614Z,987.97
2023-05-19T08:55:03.203Z,988.00
2023-05-19T08:56:03.769Z,988.03
2023-05-19T08:57:03.826Z,987.97
2023-05-19T08:58:03.782Z,987.91
2023-05-19T08:59:03.545Z,987.86
2023-05-19T09:01:03.776Z,987.94
2023-05-19T09:02:03.834Z,988.00
2023-05-19T09:03:23.668Z,987.91
2023-05-19T09:04:03.437Z,988.12
2023-05-19T09:05:03.986Z,988.06
2023-05-19T09:06:03.823Z,988.06
2023-05-19T09:07:03.405Z,988.00
2023-05-19T09:08:03.151Z,988.00
2023-05-19T09:09:03.141Z,988.00
2023-05-19T09:10:03.699Z,988.03
2023-05-19T09:12:03.893Z,988.06
2023-05-19T09:14:03.420Z,987.91
2023-05-19T09:15:03.632Z,988.06
2023-05-19T09:16:03.327Z,988.12
2023-05-19T09:17:03.675Z,988.12
2023-05-19T09:18:03.727Z,987.87
2023-05-19T09:19:03.366Z,987.94
2023-05-19T09:20:03.074Z,987.78
2023-05-19T09:21:03.800Z,987.84
2023-05-19T09:22:03.619Z,987.91
2023-05-19T09:23:03.644Z,987.91
2023-05-19T09:24:03.278Z,987.86
2023-05-19T09:25:03.860Z,987.97
2023-05-19T09:27:03.066Z,987.86
2023-05-19T09:28:03.193Z,987.94
2023-05-19T09:29:03.865Z,987.94
2023-05-19T09:30:03.557Z,987.75
2023-05-19T09:31:03.112Z,988.00
2023-05-19T09:32:03.803Z,988.00
2023-05-19T09:33:03.577Z,987.86
2023-05-19T09:34:03.228Z,988.03
2023-05-19T09:35:03.613Z,987.91
2023-05-19T09:36:03.789Z,987.86
2023-05-19T09:38:03.656Z,987.83
2023-05-19T09:39:03.760Z,987.96
2023-05-19T09:40:03.315Z,987.91
2023-05-19T09:41:02.933Z,987.91
2023-05-19T09:42:03.645Z,987.74
2023-05-19T09:43:03.580Z,987.93
2023-05-19T09:44:03.327Z,987.86
2023-05-19T09:45:03.400Z,987.91
2023-05-19T09:46:03.011Z,987.93
2023-05-19T09:47:03.131Z,987.86
2023-05-19T09:48:03.859Z,987.91
2023-05-19T09:49:03.782Z,987.91
2023-05-19T09:50:03.313Z,987.60
2023-05-19T09:51:03.261Z,987.71
2023-05-19T09:52:03.082Z,987.77
2023-05-19T09:53:03.735Z,987.62
2023-05-19T09:55:03.936Z,987.56
2023-05-19T09:57:03.115Z,987.56
2023-05-19T09:58:03.728Z,987.59
2023-05-19T09:59:03.916Z,987.48
2023-05-19T10:00:03.567Z,987.45
2023-05-19T10:01:03.147Z,987.59
2023-05-19T10:02:03.751Z,987.45
2023-05-19T10:03:03.533Z,987.45
2023-05-19T10:04:06.141Z,987.62
2023-05-19T10:05:03.355Z,987.56
2023-05-19T10:06:03.915Z,987.53
2023-05-19T10:08:03.591Z,987.53
2023-05-19T10:09:03.170Z,987.59
2023-05-19T10:10:03.833Z,987.50
2023-05-19T10:12:03.022Z,987.48
2023-05-19T10:13:03.689Z,987.42
2023-05-19T10:14:03.737Z,987.50
2023-05-19T10:15:03.202Z,987.65
2023-05-19T10:16:04.226Z,987.65
2023-05-19T10:17:04.053Z,987.53
2023-05-19T10:18:03.838Z,987.44
2023-05-19T10:19:03.701Z,987.76
2023-05-19T10:20:03.858Z,987.67
2023-05-19T10:21:03.314Z,987.58
2023-05-19T10:22:03.349Z,987.50
2023-05-19T10:23:02.958Z,987.55
2023-05-19T10:24:03.722Z,987.61
2023-05-19T10:26:03.381Z,987.44
2023-05-19T10:27:03.301Z,987.49
2023-05-19T10:28:03.839Z,987.52
2023-05-19T10:30:03.585Z,987.49
2023-05-19T10:31:03.204Z,987.55
2023-05-19T10:32:03.184Z,987.64
2023-05-19T10:33:03.995Z,987.64
2023-05-19T10:35:03.195Z,987.67
2023-05-19T10:36:03.644Z,987.64
2023-05-19T10:37:03.441Z,987.81
2023-05-19T10:38:03.164Z,987.72
2023-05-19T10:39:03.133Z,987.75
2023-05-19T10:40:03.749Z,987.92
2023-05-19T10:41:03.554Z,987.84
2023-05-19T10:42:02.995Z,987.73
2023-05-19T10:43:03.603Z,987.76
2023-05-19T10:44:03.502Z,987.64
2023-05-19T10:45:03.674Z,987.81
2023-05-19T10:46:03.406Z,987.84
2023-05-19T10:48:03.726Z,987.85
2023-05-19T10:49:03.835Z,987.64
2023-05-19T10:50:03.438Z,987.64
2023-05-19T10:51:03.407Z,987.76
2023-05-19T10:52:03.023Z,987.70
2023-05-19T10:53:03.625Z,987.73
2023-05-19T10:54:03.649Z,987.56
2023-05-19T10:55:03.344Z,987.67
2023-05-19T10:56:03.252Z,987.61
2023-05-19T10:57:03.733Z,987.76
2023-05-19T10:59:02.946Z,987.73
2023-05-19T11:00:03.422Z,987.58
2023-05-19T11:01:03.420Z,987.87
2023-05-19T11:02:03.243Z,987.64
2023-05-19T11:03:03.482Z,987.61
2023-05-19T11:04:03.681Z,987.73
2023-05-19T11:06:03.600Z,987.70
2023-05-19T11:08:03.337Z,987.73
2023-05-19T11:09:03.826Z,987.73
2023-05-19T11:11:03.175Z,987.67
2023-05-19T11:12:03.145Z,987.73
2023-05-19T11:13:03.202Z,987.67
2023-05-19T11:14:03.863Z,987.67
2023-05-19T11:15:03.868Z,987.56
2023-05-19T11:16:03.339Z,987.64
2023-05-19T11:17:03.507Z,987.67
2023-05-19T11:18:03.258Z,987.53
2023-05-19T11:19:03.116Z,987.64
2023-05-19T11:20:03.349Z,987.56
2023-05-19T11:21:03.160Z,987.44
2023-05-19T11:22:03.129Z,987.58
2023-05-19T11:23:03.884Z,987.52
2023-05-19T11:24:03.670Z,987.52
2023-05-19T11:25:03.631Z,987.52
2023-05-19T11:26:03.101Z,987.47
2023-05-19T11:27:03.329Z,987.67
2023-05-19T11:28:03.862Z,987.55
2023-05-19T11:30:03.485Z,987.47
2023-05-19T11:31:03.189Z,987.50
2023-05-19T11:32:03.160Z,987.36
2023-05-19T11:33:03.411Z,987.70
2023-05-19T11:34:03.460Z,987.44
2023-05-19T11:35:03.575Z,987.33
2023-05-19T11:36:03.578Z,987.36
2023-05-19T11:37:03.507Z,987.39
2023-05-19T11:38:03.594Z,987.36
2023-05-19T11:39:03.656Z,987.24
2023-05-19T11:40:03.671Z,987.38
2023-05-19T11:41:03.264Z,987.35
2023-05-19T11:42:03.861Z,987.18
2023-05-19T11:43:03.552Z,987.35
2023-05-19T11:44:03.762Z,987.35
2023-05-19T11:45:03.682Z,987.35
2023-05-19T11:46:03.792Z,987.41
2023-05-19T11:47:03.830Z,987.47
2023-05-19T11:48:03.985Z,987.53
2023-05-19T11:49:03.284Z,987.53
2023-05-19T11:50:03.779Z,987.41
2023-05-19T11:51:03.323Z,987.53
2023-05-19T11:53:03.998Z,987.47
2023-05-19T11:54:03.660Z,987.62
2023-05-19T11:55:03.228Z,987.41
2023-05-19T11:56:03.345Z,987.50
2023-05-19T11:57:03.599Z,987.38
2023-05-19T11:58:06.090Z,987.38
2023-05-19T11:59:03.329Z,987.49
2023-05-19T12:00:03.946Z,987.49
2023-05-19T12:01:03.654Z,987.46
2023-05-19T12:02:03.306Z,987.49
2023-05-19T12:03:03.294Z,987.49
2023-05-19T12:04:03.115Z,987.46
2023-05-19T12:05:03.382Z,987.40
2023-05-19T12:06:03.014Z,987.34
2023-05-19T12:07:03.587Z,987.37
2023-05-19T12:08:03.392Z,987.25
2023-05-19T12:09:03.844Z,987.31
2023-05-19T12:10:03.630Z,987.33
2023-05-19T12:11:03.050Z,987.33
2023-05-19T12:12:03.775Z,987.33
2023-05-19T12:14:02.987Z,987.21
2023-05-19T12:15:03.026Z,987.45
2023-05-19T12:16:03.186Z,987.27
2023-05-19T12:17:03.359Z,987.30
2023-05-19T12:18:04.042Z,987.16
2023-05-19T12:20:03.559Z,987.33
2023-05-19T12:22:04.515Z,987.27
2023-05-19T12:23:03.525Z,987.27
2023-05-19T12:24:03.103Z,987.15
2023-05-19T12:25:03.700Z,987.15
2023-05-19T12:26:03.462Z,987.18
2023-05-19T12:27:03.649Z,987.15
2023-05-19T12:28:04.450Z,987.13
2023-05-19T12:29:03.308Z,987.18
2023-05-19T12:30:03.949Z,987.27
2023-05-19T12:32:03.360Z,987.24
2023-05-19T12:33:04.132Z,987.16
2023-05-19T12:34:03.687Z,987.19
2023-05-19T12:35:03.380Z,987.19
2023-05-19T12:36:03.436Z,987.25
2023-05-19T12:37:03.393Z,987.14
2023-05-19T12:38:03.409Z,987.25
2023-05-19T12:39:03.121Z,987.11
2023-05-19T12:40:03.815Z,987.14
2023-05-19T12:41:03.966Z,987.17
2023-05-19T12:42:03.009Z,987.11
2023-05-19T12:43:03.512Z,987.05
2023-05-19T12:44:03.440Z,986.99
2023-05-19T12:45:03.851Z,987.02
2023-05-19T12:46:03.327Z,987.17
2023-05-19T12:47:02.944Z,987.05
2023-05-19T12:48:03.130Z,987.14
2023-05-19T12:49:03.850Z,986.96
2023-05-19T12:50:03.393Z,986.99
2023-05-19T12:51:03.047Z,986.99
2023-05-19T12:52:09.391Z,987.13
2023-05-19T12:53:03.759Z,987.01
2023-05-19T12:54:03.850Z,986.92
2023-05-19T12:55:03.632Z,986.92
2023-05-19T12:56:03.456Z,986.83
2023-05-19T12:57:03.466Z,986.86
2023-05-19T12:58:03.334Z,986.83
2023-05-19T12:59:03.284Z,986.92
2023-05-19T13:00:03.031Z,986.80
2023-05-19T13:01:03.995Z,986.75
2023-05-19T13:03:04.034Z,986.69
2023-05-19T13:04:06.873Z,986.83
2023-05-19T13:06:03.559Z,986.80
2023-05-19T13:07:03.729Z,986.69
2023-05-19T13:08:03.399Z,986.77
2023-05-19T13:09:03.353Z,986.63
2023-05-19T13:10:03.441Z,986.74
2023-05-19T13:11:03.647Z,986.55
2023-05-19T13:12:03.360Z,986.86
2023-05-19T13:13:03.963Z,986.71
2023-05-19T13:15:03.524Z,986.66
2023-05-19T13:16:03.040Z,986.69
2023-05-19T13:17:03.823Z,986.72
2023-05-19T13:18:03.609Z,986.57
2023-05-19T13:19:03.757Z,986.63
2023-05-19T13:20:03.831Z,986.75
2023-05-19T13:22:03.265Z,986.66
2023-05-19T13:23:03.874Z,986.60
2023-05-19T13:25:03.573Z,986.72
2023-05-19T13:26:03.242Z,986.60
2023-05-19T13:27:03.991Z,986.72
2023-05-19T13:29:03.013Z,986.72
2023-05-19T13:30:03.778Z,986.58
2023-05-19T13:32:03.006Z,986.63
2023-05-19T13:33:03.200Z,986.58
2023-05-19T13:34:03.716Z,986.61
2023-05-19T13:35:03.446Z,986.61
2023-05-19T13:36:03.163Z,986.75
2023-05-19T13:37:03.456Z,986.66
2023-05-19T13:38:03.067Z,986.53
2023-05-19T13:39:02.996Z,986.63
2023-05-19T13:40:03.826Z,986.60
2023-05-19T13:42:02.930Z,986.63
2023-05-19T13:43:03.673Z,986.41
2023-05-19T13:44:03.304Z,986.55
2023-05-19T13:45:03.820Z,986.41
2023-05-19T13:47:03.648Z,986.55
2023-05-19T13:48:03.575Z,986.41
2023-05-19T13:49:03.587Z,986.41
2023-05-19T13:50:03.348Z,986.44
2023-05-19T13:51:02.967Z,986.38
2023-05-19T13:52:03.009Z,986.47
2023-05-19T13:53:03.023Z,986.52
2023-05-19T13:54:03.718Z,986.63
2023-05-19T13:56:03.867Z,986.63
2023-05-19T13:58:03.610Z,986.50
2023-05-19T13:59:03.204Z,986.66
2023-05-19T14:00:04.725Z,986.63
2023-05-19T14:02:03.789Z,986.60
2023-05-19T14:03:03.617Z,986.69
2023-05-19T14:04:04.382Z,986.72
2023-05-19T14:05:03.447Z,986.58
2023-05-19T14:06:03.296Z,986.66
2023-05-19T14:07:03.082Z,986.60
2023-05-19T14:08:03.646Z,986.63
2023-05-19T14:09:03.631Z,986.50
2023-05-19T14:10:04.337Z,986.60
2023-05-19T14:11:03.819Z,986.53
2023-05-19T14:12:03.300Z,986.55
2023-05-19T14:13:25.676Z,986.35
2023-05-19T14:15:03.780Z,986.55
2023-05-19T14:17:03.192Z,986.29
2023-05-19T14:18:06.050Z,986.29
2023-05-19T14:19:03.654Z,986.17
2023-05-19T14:21:03.633Z,986.40
2023-05-19T14:22:03.549Z,986.20
2023-05-19T14:23:03.779Z,986.28
2023-05-19T14:24:03.355Z,986.19
2023-05-19T14:26:03.816Z,986.28
2023-05-19T14:28:03.454Z,986.25
2023-05-19T14:29:05.165Z,986.31
2023-05-19T14:30:03.471Z,986.43
2023-05-19T14:31:04.050Z,986.37